Terminal Aerodrome Forecast
Issued by NWS Cleveland, OH

Home | Current Version | Previous Version | Graphics & Text | Print | Product List | Glossary On
Versions: 1 2 3 4 5 6 7 8 9 10 11 12 13 14 15 16 17 18 19 20
957
FTUS41 KCLE 021223 AAA
TAFCAK
TAF AMD
KCAK 021223Z 0212/0312 33006KT P6SM OVC005
      TEMPO 0212/0214 1SM BR
     FM022300 35007KT P6SM OVC015
     FM030100 02005KT P6SM OVC035
     FM030800 01004KT P6SM OVC025
     FM031000 36004KT P6SM OVC015=

USA.gov is the U.S. government's official web portal to all federal, state and local government web resources and services.